Time;durP1;ratioP1;P1;durP2;ratioP2;P2;SDS_P1;SDS_P2;PMS_P1;PMS_P2;Temp;Humidity;BMP_temperature;BMP_pressure;BME280_temperature;BME280_humidity;BME280_pressure;Samples;Min_cycle;Max_cycle;Signal;HPM_P1;HPM_P2
2023/01/19 00:00:49;;;;;;;9.57;6.60;;;;;;;5.41;100.00;98857.50;1437796;90;21389;-78
2023/01/19 00:03:16;;;;;;;13.30;7.23;;;;;;;5.41;100.00;98850.94;1435011;90;21523;-78
2023/01/19 00:05:43;;;;;;;13.87;8.70;;;;;;;5.40;100.00;98848.45;1435925;91;21265;-78
2023/01/19 00:08:13;;;;;;;15.97;7.83;;;;;;;5.38;100.00;98844.69;1432089;90;21479;-78
2023/01/19 00:10:44;;;;;;;10.57;6.93;;;;;;;5.38;100.00;98846.00;1440483;90;21560;-78
2023/01/19 00:13:10;;;;;;;14.43;9.60;;;;;;;5.40;100.00;98846.65;1433636;90;22404;-80
2023/01/19 00:15:36;;;;;;;15.23;8.80;;;;;;;5.43;100.00;98842.90;1437625;91;21353;-81
2023/01/19 00:18:03;;;;;;;11.13;7.73;;;;;;;5.43;100.00;98844.20;1432907;90;21478;-78
2023/01/19 00:20:31;;;;;;;11.10;7.07;;;;;;;5.47;100.00;98842.09;1443106;90;21498;-80
2023/01/19 00:22:58;;;;;;;11.83;6.87;;;;;;;5.49;100.00;98840.15;1438705;90;21339;-80
2023/01/19 00:25:25;;;;;;;8.77;6.30;;;;;;;5.50;100.00;98837.88;1432676;91;21338;-79
2023/01/19 00:27:51;;;;;;;8.33;6.90;;;;;;;5.50;100.00;98826.08;1440232;90;21442;-78
2023/01/19 00:30:17;;;;;;;10.57;5.73;;;;;;;5.50;100.00;98819.02;1435479;90;21725;-78
2023/01/19 00:32:44;;;;;;;10.10;6.50;;;;;;;5.50;100.00;98825.58;1440354;90;21390;-79
2023/01/19 00:35:10;;;;;;;8.23;5.70;;;;;;;5.53;100.00;98820.02;1439999;90;21546;-80
2023/01/19 00:37:36;;;;;;;7.60;5.63;;;;;;;5.54;100.00;98811.66;1439425;90;21479;-79
2023/01/19 00:40:03;;;;;;;7.57;6.03;;;;;;;5.56;100.00;98808.39;1441408;91;22583;-78
2023/01/19 00:42:43;;;;;;;8.17;6.30;;;;;;;5.60;100.00;98804.47;1438044;91;21487;-80
2023/01/19 00:45:14;;;;;;;9.53;7.17;;;;;;;5.59;100.00;98796.27;1435989;91;21612;-80
2023/01/19 00:47:41;;;;;;;10.80;7.20;;;;;;;5.57;100.00;98792.97;1432225;91;22236;-79
2023/01/19 00:50:13;;;;;;;9.37;5.97;;;;;;;5.56;100.00;98784.77;1434680;90;21526;-80
2023/01/19 00:52:40;;;;;;;22.63;15.97;;;;;;;5.56;100.00;98785.59;1444102;90;21412;-79
2023/01/19 00:55:10;;;;;;;12.37;9.20;;;;;;;5.57;100.00;98777.22;1442829;91;21338;-79
2023/01/19 00:57:38;;;;;;;11.00;5.97;;;;;;;5.59;100.00;98777.41;1440674;90;22270;-79
2023/01/19 01:00:10;;;;;;;14.00;9.53;;;;;;;5.58;100.00;98769.67;1431825;90;21612;-79
2023/01/19 01:02:38;;;;;;;11.00;7.67;;;;;;;5.60;100.00;98767.73;1446561;90;21568;-79
2023/01/19 01:05:06;;;;;;;9.63;6.40;;;;;;;5.61;100.00;98768.05;1441299;90;21316;-80
2023/01/19 01:07:44;;;;;;;9.20;5.63;;;;;;;5.64;100.00;98773.02;1434837;90;21390;-78
2023/01/19 01:10:15;;;;;;;7.37;5.50;;;;;;;5.63;100.00;98781.84;1436962;90;21523;-79
2023/01/19 01:12:41;;;;;;;;;;;;;;;5.61;100.00;98784.64;1440950;90;21374;-79
2023/01/19 01:15:10;;;;;;;9.20;5.47;;;;;;;5.55;100.00;98779.17;1432873;90;20917;-78
2023/01/19 01:17:46;;;;;;;8.17;5.97;;;;;;;5.51;100.00;98773.91;1421643;91;22336;-79
2023/01/19 01:20:05;;;;;;;13.00;6.97;;;;;;;5.49;100.00;98777.17;1445886;90;21493;-79
2023/01/19 01:22:32;;;;;;;9.13;6.03;;;;;;;5.49;100.00;98786.36;1433546;91;22426;-79
2023/01/19 01:24:58;;;;;;;9.47;5.93;;;;;;;5.47;100.00;98775.19;1444391;90;22366;-80
2023/01/19 01:27:24;;;;;;;10.73;6.30;;;;;;;5.50;100.00;98773.59;1442591;91;21398;-78
2023/01/19 01:29:50;;;;;;;9.27;6.10;;;;;;;5.54;100.00;98765.73;1439098;91;21398;-79
2023/01/19 01:32:17;;;;;;;10.77;6.20;;;;;;;5.56;100.00;98765.09;1443484;90;21375;-79
2023/01/19 01:34:43;;;;;;;8.73;5.33;;;;;;;5.60;100.00;98769.03;1435440;91;22308;-78
2023/01/19 01:37:09;;;;;;;10.47;6.33;;;;;;;5.61;100.00;98762.80;1432793;91;21434;-79
2023/01/19 01:39:36;;;;;;;8.90;6.00;;;;;;;5.65;100.00;98747.09;1430660;90;21435;-79
2023/01/19 01:42:06;;;;;;;9.33;5.80;;;;;;;5.69;100.00;98738.41;1433115;90;22299;-79
2023/01/19 01:45:05;;;;;;;6.83;4.72;;;;;;;5.72;100.00;98725.78;1436266;90;21450;-79
2023/01/19 01:47:42;;;;;;;7.93;5.83;;;;;;;5.75;100.00;98712.83;1438241;90;21523;-80
2023/01/19 01:50:19;;;;;;;8.87;5.30;;;;;;;5.72;100.00;98698.22;1442700;90;21406;-79
2023/01/19 01:53:03;;;;;;;6.73;5.30;;;;;;;5.70;100.00;98698.89;1436895;90;23068;-82
2023/01/19 01:55:31;;;;;;;8.47;4.57;;;;;;;5.68;100.00;98689.02;1435965;90;21404;-82
2023/01/19 01:58:04;;;;;;;9.37;4.27;;;;;;;5.68;100.00;98690.34;1432358;90;21412;-82
2023/01/19 02:02:49;;;;;;;7.03;4.30;;;;;;;5.68;100.00;98688.21;1429311;90;22278;-81
2023/01/19 02:02:59;;;;;;;5.03;3.70;;;;;;;5.66;100.00;98673.42;1436120;90;21428;-82
2023/01/19 02:05:34;;;;;;;5.80;3.70;;;;;;;5.70;100.00;98669.16;1434941;90;22356;-81
2023/01/19 02:13:56;;;;;;;5.33;3.30;;;;;;;5.76;100.00;98644.93;1440112;91;22486;-79
2023/01/19 02:16:22;;;;;;;3.60;3.07;;;;;;;5.78;100.00;98645.56;1436109;90;21451;-80
2023/01/19 02:18:48;;;;;;;7.00;3.70;;;;;;;5.84;100.00;98647.08;1433415;90;21574;-80
2023/01/19 02:21:34;;;;;;;7.63;3.53;;;;;;;5.87;100.00;98636.75;1438485;91;22286;-80
2023/01/19 02:24:02;;;;;;;4.40;3.30;;;;;;;5.93;100.00;98627.38;1437021;90;21634;-80
2023/01/19 02:26:35;;;;;;;8.00;3.17;;;;;;;5.97;100.00;98619.55;1432445;90;22279;-80
2023/01/19 02:29:09;;;;;;;6.20;3.10;;;;;;;6.02;100.00;98609.39;1430101;91;21553;-81
2023/01/19 02:31:38;;;;;;;3.23;2.57;;;;;;;6.07;100.00;98607.92;1441462;90;21361;-81
2023/01/19 02:34:07;;;;;;;4.53;2.77;;;;;;;6.13;100.00;98620.05;1444200;90;22205;-80
2023/01/19 02:36:51;;;;;;;4.20;2.83;;;;;;;6.18;100.00;98613.33;1425676;90;21383;-84
2023/01/19 02:39:21;;;;;;;5.70;2.63;;;;;;;6.23;100.00;98618.09;1440862;90;21560;-84
2023/01/19 02:41:52;;;;;;;2.67;2.35;;;;;;;6.30;100.00;98631.73;1430790;90;21553;-83
2023/01/19 02:44:20;;;;;;;6.15;2.92;;;;;;;6.32;100.00;98635.00;1438268;90;22212;-83
2023/01/19 02:46:46;;;;;;;5.97;2.90;;;;;;;6.39;100.00;98640.44;1436144;90;21419;-84
2023/01/19 02:49:13;;;;;;;4.90;2.00;;;;;;;6.43;100.00;98636.98;1434834;90;21324;-84
2023/01/19 02:51:43;;;;;;;5.80;2.00;;;;;;;6.48;100.00;98622.37;1441978;90;21405;-84
2023/01/19 02:54:15;;;;;;;2.10;1.50;;;;;;;6.54;100.00;98613.00;1438521;90;21405;-85
2023/01/19 02:57:24;;;;;;;2.53;1.80;;;;;;;6.54;100.00;98618.26;1434857;91;21524;-84
2023/01/19 03:00:08;;;;;;;2.83;2.20;;;;;;;6.59;100.00;98627.79;1442220;90;22405;-84
2023/01/19 03:02:55;;;;;;;4.10;1.83;;;;;;;6.65;100.00;98646.83;1431463;90;21442;-83
2023/01/19 03:05:36;;;;;;;2.47;1.30;;;;;;;6.65;100.00;98635.00;1435938;91;22263;-84
2023/01/19 03:08:10;;;;;;;3.92;1.45;;;;;;;6.67;100.00;98644.84;1425885;90;21522;-80
2023/01/19 03:11:06;;;;;;;3.13;1.23;;;;;;;6.69;100.00;98649.45;1435223;90;22485;-81
2023/01/19 03:13:50;;;;;;;2.53;1.83;;;;;;;6.73;100.00;98656.50;1423217;91;21508;-79
2023/01/19 03:16:53;;;;;;;2.17;1.50;;;;;;;6.78;100.00;98657.64;1434276;90;21531;-80
2023/01/19 03:19:19;;;;;;;3.73;2.43;;;;;;;6.85;100.00;98655.66;1430011;90;22514;-80
2023/01/19 03:21:50;;;;;;;2.83;1.87;;;;;;;6.90;100.00;98659.94;1421473;91;21486;-80
2023/01/19 03:24:19;;;;;;;2.22;1.87;;;;;;;6.92;100.00;98664.54;1435478;91;22286;-81
2023/01/19 03:26:57;;;;;;;3.93;1.20;;;;;;;6.93;100.00;98657.81;1435312;90;21301;-79
2023/01/19 03:29:33;;;;;;;2.33;1.20;;;;;;;6.92;100.00;98643.00;1430682;91;21442;-78
2023/01/19 03:32:04;;;;;;;3.27;1.60;;;;;;;6.95;100.00;98636.59;1434499;90;21517;-79
2023/01/19 03:34:33;;;;;;;5.47;2.17;;;;;;;6.97;100.00;98638.56;1430712;90;21428;-82
2023/01/19 03:37:03;;;;;;;3.33;1.60;;;;;;;7.01;100.00;98647.75;1428097;90;21405;-82
2023/01/19 03:39:30;;;;;;;3.72;1.60;;;;;;;6.98;100.00;98627.05;1443393;91;21508;-80
2023/01/19 03:42:03;;;;;;;2.67;1.40;;;;;;;6.98;100.00;98639.70;1433437;91;21909;-79
2023/01/19 03:44:33;;;;;;;3.20;1.60;;;;;;;6.98;100.00;98633.62;1435819;91;21641;-80
2023/01/19 03:47:01;;;;;;;2.70;1.70;;;;;;;7.01;100.00;98639.36;1435264;90;21457;-80
2023/01/19 03:49:30;;;;;;;2.47;1.33;;;;;;;7.04;100.00;98638.20;1438311;91;22276;-82
2023/01/19 03:51:57;;;;;;;2.43;1.43;;;;;;;7.08;100.00;98631.63;1435520;91;22426;-82
2023/01/19 03:54:24;;;;;;;1.57;1.20;;;;;;;7.12;100.00;98639.50;1421376;91;21361;-81
2023/01/19 03:56:56;;;;;;;1.77;1.30;;;;;;;7.20;100.00;98646.56;1438348;90;22338;-82
2023/01/19 03:59:20;;;;;;;1.73;1.30;;;;;;;7.19;100.00;98643.11;1435552;90;21655;-82
2023/01/19 04:01:47;;;;;;;4.43;1.90;;;;;;;7.28;100.00;98658.84;1437249;90;21353;-82
2023/01/19 04:04:14;;;;;;;3.93;2.63;;;;;;;7.29;100.00;98651.30;1441623;91;22160;-82
2023/01/19 04:06:42;;;;;;;2.37;1.53;;;;;;;7.26;100.00;98633.22;1442701;90;21619;-82
2023/01/19 04:09:08;;;;;;;4.07;2.03;;;;;;;7.22;100.00;98628.77;1440441;90;21398;-81
2023/01/19 04:11:34;;;;;;;3.90;1.87;;;;;;;7.18;100.00;98611.70;1432474;91;21626;-82
2023/01/19 04:14:01;;;;;;;2.40;1.40;;;;;;;7.17;100.00;98598.22;1436782;90;21391;-82
2023/01/19 04:16:27;;;;;;;3.50;1.77;;;;;;;7.17;100.00;98609.56;1437039;90;21545;-81
2023/01/19 04:18:54;;;;;;;6.30;2.00;;;;;;;7.21;100.00;98627.14;1433596;90;21345;-81
2023/01/19 04:21:21;;;;;;;2.30;1.63;;;;;;;7.22;100.00;98638.83;1438271;90;21346;-81
2023/01/19 04:23:48;;;;;;;2.60;1.63;;;;;;;7.24;100.00;98651.30;1438557;90;21449;-82
2023/01/19 04:26:15;;;;;;;3.37;2.43;;;;;;;7.21;100.00;98641.61;1429940;91;21619;-82
2023/01/19 04:28:41;;;;;;;4.53;2.27;;;;;;;7.19;100.00;98612.86;1434260;91;21435;-82
2023/01/19 04:31:08;;;;;;;2.30;1.40;;;;;;;7.19;100.00;98606.28;1434633;90;22365;-82
2023/01/19 04:33:35;;;;;;;2.40;2.00;;;;;;;7.21;100.00;98634.53;1441494;90;21546;-82
2023/01/19 04:36:02;;;;;;;3.43;1.67;;;;;;;7.23;100.00;98634.38;1435353;90;21391;-80
2023/01/19 04:38:29;;;;;;;1.97;1.40;;;;;;;7.27;100.00;98620.38;1438051;91;21560;-81
2023/01/19 04:40:55;;;;;;;2.07;1.50;;;;;;;7.32;100.00;98615.43;1442027;90;21436;-81
2023/01/19 04:43:23;;;;;;;3.83;2.03;;;;;;;7.30;100.00;98613.45;1443249;91;21456;-80
2023/01/19 04:45:50;;;;;;;4.83;1.97;;;;;;;7.27;100.00;98613.30;1433012;90;21464;-81
2023/01/19 04:48:17;;;;;;;2.10;1.40;;;;;;;7.24;100.00;98659.69;1436821;91;21427;-80
2023/01/19 04:50:43;;;;;;;2.70;1.50;;;;;;;7.22;100.00;98665.61;1439217;90;21493;-81
2023/01/19 04:53:12;;;;;;;2.57;1.43;;;;;;;7.20;100.00;98671.05;1436519;90;21531;-80
2023/01/19 04:55:38;;;;;;;3.93;2.27;;;;;;;7.22;100.00;98678.30;1436324;90;21516;-77
2023/01/19 04:58:04;;;;;;;2.80;1.63;;;;;;;7.24;100.00;98654.42;1434603;90;21419;-77
2023/01/19 05:00:30;;;;;;;3.70;2.07;;;;;;;7.30;100.00;98662.14;1437078;90;21354;-81
2023/01/19 05:02:56;;;;;;;2.43;1.73;;;;;;;7.30;100.00;98668.22;1446318;90;21464;-80
2023/01/19 05:05:22;;;;;;;3.17;1.97;;;;;;;7.31;100.00;98661.14;1420683;91;21427;-80
2023/01/19 05:07:49;;;;;;;3.80;2.10;;;;;;;7.29;100.00;98649.98;1440439;90;22219;-79
2023/01/19 05:10:15;;;;;;;4.77;1.97;;;;;;;7.33;100.00;98659.98;1442024;91;21554;-81
2023/01/19 05:12:42;;;;;;;3.07;1.73;;;;;;;7.34;100.00;98653.75;1438902;90;21367;-81
2023/01/19 05:15:10;;;;;;;4.60;2.50;;;;;;;7.37;100.00;98663.12;1430647;91;21601;-81
2023/01/19 05:17:36;;;;;;;5.63;2.40;;;;;;;7.38;100.00;98664.75;1430611;90;21604;-81
2023/01/19 05:20:04;;;;;;;3.20;2.20;;;;;;;7.35;100.00;98672.98;1437933;90;21391;-81
2023/01/19 05:22:30;;;;;;;4.90;2.53;;;;;;;7.35;100.00;98666.41;1437516;90;21604;-80
2023/01/19 05:24:57;;;;;;;3.30;1.80;;;;;;;7.36;100.00;98662.77;1437916;91;22404;-80
2023/01/19 05:27:23;;;;;;;2.07;1.50;;;;;;;7.42;100.00;98654.19;1437291;90;21398;-80
2023/01/19 05:29:49;;;;;;;3.30;2.10;;;;;;;7.40;100.00;98658.33;1433805;91;21397;-80
2023/01/19 05:32:15;;;;;;;2.50;1.60;;;;;;;7.44;100.00;98658.30;1440758;90;22374;-81
2023/01/19 05:34:42;;;;;;;3.53;1.73;;;;;;;7.48;100.00;98660.59;1434894;91;21582;-79
2023/01/19 05:37:08;;;;;;;4.93;2.03;;;;;;;7.50;100.00;98651.53;1445441;90;21398;-80
2023/01/19 05:39:34;;;;;;;3.87;1.80;;;;;;;7.54;100.00;98646.27;1437552;91;22419;-80
2023/01/19 05:42:00;;;;;;;5.37;2.37;;;;;;;7.58;100.00;98650.69;1427131;91;21458;-79
2023/01/19 05:44:26;;;;;;;4.40;2.17;;;;;;;7.54;100.00;98651.53;1447698;90;21398;-79
2023/01/19 05:46:52;;;;;;;5.10;3.23;;;;;;;7.50;100.00;98656.80;1441102;90;21548;-79
2023/01/19 05:49:19;;;;;;;26.00;13.17;;;;;;;7.47;100.00;98655.83;1438491;90;21577;-79
2023/01/19 05:51:45;;;;;;;18.30;10.17;;;;;;;7.44;100.00;98658.80;1434852;91;21420;-80
2023/01/19 05:54:14;;;;;;;17.07;9.97;;;;;;;7.41;100.00;98656.51;1438524;91;21390;-80
2023/01/19 05:56:41;;;;;;;12.10;7.10;;;;;;;7.43;100.00;98653.22;1439592;90;21467;-83
2023/01/19 05:59:08;;;;;;;10.63;5.47;;;;;;;7.44;100.00;98653.03;1437839;90;21523;-83
2023/01/19 06:01:36;;;;;;;7.43;5.63;;;;;;;7.44;100.00;98652.22;1429871;90;21542;-84
2023/01/19 06:04:03;;;;;;;7.33;5.20;;;;;;;7.42;100.00;98657.67;1427446;91;21435;-82
2023/01/19 06:06:29;;;;;;;6.27;4.17;;;;;;;7.38;100.00;98658.98;1431800;90;21545;-84
2023/01/19 06:08:55;;;;;;;7.00;4.67;;;;;;;7.38;100.00;98660.80;1435341;90;21501;-83
2023/01/19 06:11:21;;;;;;;6.30;4.50;;;;;;;7.40;100.00;98671.98;1438179;91;21412;-83
2023/01/19 06:13:47;;;;;;;7.33;4.97;;;;;;;7.38;100.00;98666.06;1441039;90;21362;-83
2023/01/19 06:16:14;;;;;;;13.20;7.67;;;;;;;7.38;100.00;98673.95;1435426;91;21502;-82
2023/01/19 06:18:40;;;;;;;15.93;12.07;;;;;;;7.43;100.00;98679.55;1432788;91;21435;-83
2023/01/19 06:21:09;;;;;;;12.00;10.47;;;;;;;7.46;100.00;98683.15;1437070;91;21393;-83
2023/01/19 06:23:36;;;;;;;17.67;11.73;;;;;;;7.49;100.00;98680.17;1433395;91;22249;-84
2023/01/19 06:26:03;;;;;;;11.00;7.83;;;;;;;7.52;100.00;98687.73;1440757;91;21516;-84
2023/01/19 06:28:29;;;;;;;12.00;8.10;;;;;;;7.48;100.00;98686.91;1436041;91;21403;-80
2023/01/19 06:30:56;;;;;;;13.93;8.60;;;;;;;7.43;100.00;98688.75;1446150;91;21456;-81
2023/01/19 06:33:24;;;;;;;16.23;9.83;;;;;;;7.40;100.00;98687.78;1437496;90;21582;-80
2023/01/19 06:35:51;;;;;;;14.40;8.97;;;;;;;7.39;100.00;98691.38;1442150;91;21405;-79
2023/01/19 06:38:18;;;;;;;9.73;7.40;;;;;;;7.36;100.00;98686.46;1434901;90;21435;-82
2023/01/19 06:40:47;;;;;;;12.10;6.20;;;;;;;7.38;100.00;98684.48;1432012;91;22284;-82
2023/01/19 06:43:13;;;;;;;8.97;6.13;;;;;;;7.38;100.00;98683.17;1446646;90;21494;-82
2023/01/19 06:45:39;;;;;;;10.33;6.53;;;;;;;7.40;100.00;98688.59;1439700;91;21435;-82
2023/01/19 06:48:07;;;;;;;13.13;7.67;;;;;;;7.39;100.00;98687.44;1434459;90;21546;-83
2023/01/19 06:50:34;;;;;;;14.57;8.30;;;;;;;7.41;100.00;98681.52;1445760;90;21435;-83
2023/01/19 06:53:00;;;;;;;11.37;7.30;;;;;;;7.39;100.00;98677.75;1439183;91;21419;-84
2023/01/19 06:55:27;;;;;;;14.23;7.03;;;;;;;7.38;100.00;98677.91;1432089;91;21420;-85
2023/01/19 06:57:58;;;;;;;12.87;6.53;;;;;;;7.36;100.00;98679.88;1434383;91;22982;-84
2023/01/19 07:00:25;;;;;;;11.78;7.10;;;;;;;7.35;100.00;98686.14;1438347;90;21590;-82
2023/01/19 07:02:51;;;;;;;9.33;6.70;;;;;;;7.38;100.00;98688.44;1437115;91;21564;-84
2023/01/19 07:05:18;;;;;;;12.67;6.00;;;;;;;7.36;100.00;98685.14;1440113;90;22191;-84
2023/01/19 07:07:46;;;;;;;9.33;6.37;;;;;;;7.36;100.00;98693.86;1442299;90;21317;-84
2023/01/19 07:10:14;;;;;;;9.80;5.47;;;;;;;7.38;100.00;98680.54;1427525;91;21397;-84
2023/01/19 07:12:41;;;;;;;10.37;7.13;;;;;;;7.40;100.00;98685.97;1425347;91;21383;-85
2023/01/19 07:15:10;;;;;;;10.77;7.17;;;;;;;7.43;100.00;98692.70;1431193;90;21524;-86
2023/01/19 07:17:37;;;;;;;10.67;5.97;;;;;;;7.45;100.00;98694.65;1441706;90;21534;-85
2023/01/19 07:20:03;;;;;;;13.47;7.10;;;;;;;7.46;100.00;98698.44;1437460;91;21406;-85
2023/01/19 07:22:35;;;;;;;18.33;7.63;;;;;;;7.47;100.00;98707.16;1439619;90;21531;-85
2023/01/19 07:25:01;;;;;;;14.80;8.27;;;;;;;7.49;100.00;98705.18;1438326;91;21377;-86
2023/01/19 07:27:27;;;;;;;13.97;7.87;;;;;;;7.52;100.00;98704.84;1438880;90;21472;-80
2023/01/19 07:29:54;;;;;;;15.27;9.23;;;;;;;7.50;100.00;98694.97;1441338;90;21471;-79
2023/01/19 07:32:20;;;;;;;13.13;8.03;;;;;;;7.51;100.00;98705.84;1444003;90;21405;-84
2023/01/19 07:34:47;;;;;;;16.70;8.00;;;;;;;7.57;100.00;98703.84;1447305;90;21524;-81
2023/01/19 07:37:14;;;;;;;15.27;8.53;;;;;;;7.61;100.00;98695.91;1426074;91;21493;-84
2023/01/19 07:39:40;;;;;;;14.00;8.20;;;;;;;7.65;100.00;98707.77;1431336;90;21600;-79
2023/01/19 07:42:06;;;;;;;20.73;10.27;;;;;;;7.67;100.00;98712.84;1440949;91;22468;-79
2023/01/19 07:44:32;;;;;;;26.00;10.60;;;;;;;7.65;100.00;98715.66;1437252;91;21288;-88
2023/01/19 07:46:59;;;;;;;18.83;11.93;;;;;;;7.62;100.00;98723.91;1441637;91;21272;-89
2023/01/19 07:49:25;;;;;;;16.60;9.90;;;;;;;7.57;100.00;98718.82;1434829;91;21361;-88
2023/01/19 07:51:51;;;;;;;15.93;9.90;;;;;;;7.58;100.00;98721.77;1434164;90;22300;-89
2023/01/19 07:54:17;;;;;;;15.97;10.33;;;;;;;7.58;100.00;98723.91;1433006;91;21374;-89
2023/01/19 07:56:56;;;;;;;13.97;8.57;;;;;;;7.56;100.00;98720.61;1433302;91;22264;-87
2023/01/19 07:59:22;;;;;;;11.50;6.37;;;;;;;7.54;100.00;98723.92;1435441;91;21412;-88
2023/01/19 08:01:48;;;;;;;10.23;5.10;;;;;;;7.56;100.00;98728.50;1425411;91;21615;-89
2023/01/19 08:04:14;;;;;;;15.30;5.77;;;;;;;7.57;100.00;98722.77;1437524;90;21567;-87
2023/01/19 08:06:44;;;;;;;10.67;5.53;;;;;;;7.59;100.00;98729.48;1435941;91;21339;-89
2023/01/19 08:09:10;;;;;;;10.93;4.93;;;;;;;7.57;100.00;98728.04;1429188;91;22256;-88
2023/01/19 08:11:38;;;;;;;11.10;6.30;;;;;;;7.54;100.00;98722.61;1442308;91;21450;-88
2023/01/19 08:14:04;;;;;;;19.00;10.87;;;;;;;7.51;100.00;98728.22;1429887;90;21419;-88
2023/01/19 08:16:31;;;;;;;14.80;9.47;;;;;;;7.48;100.00;98731.66;1435797;91;22447;-87
2023/01/19 08:18:57;;;;;;;13.10;8.53;;;;;;;7.49;100.00;98730.19;1440075;91;21516;-88
2023/01/19 08:21:23;;;;;;;15.13;8.90;;;;;;;7.55;100.00;98732.64;1442619;91;21587;-89
2023/01/19 08:23:57;;;;;;;12.27;7.47;;;;;;;7.60;100.00;98732.46;1431563;90;21429;-89
2023/01/19 08:26:37;;;;;;;9.93;7.43;;;;;;;7.64;100.00;98732.44;1433734;91;22481;-88
2023/01/19 08:29:05;;;;;;;11.93;8.77;;;;;;;7.71;100.00;98740.50;1442573;91;22263;-90
2023/01/19 08:31:31;;;;;;;13.27;8.37;;;;;;;7.81;100.00;98742.91;1432571;90;22248;-89
2023/01/19 08:33:58;;;;;;;16.83;10.90;;;;;;;7.88;100.00;98734.64;1442360;90;21324;-90
2023/01/19 08:36:24;;;;;;;21.60;11.50;;;;;;;7.91;100.00;98734.30;1430954;91;21435;-89
2023/01/19 08:38:51;;;;;;;21.30;13.37;;;;;;;7.91;100.00;98740.88;1431835;91;22514;-88
2023/01/19 08:41:18;;;;;;;21.70;13.17;;;;;;;7.94;100.00;98739.25;1441580;91;21525;-90
2023/01/19 08:43:44;;;;;;;21.63;13.47;;;;;;;7.94;100.00;98739.25;1429436;91;21404;-88
2023/01/19 08:46:10;;;;;;;26.50;14.70;;;;;;;7.97;100.00;98737.59;1439286;91;21568;-88
2023/01/19 08:48:37;;;;;;;17.77;14.93;;;;;;;8.03;100.00;98738.71;1433031;91;22337;-84
2023/01/19 08:51:03;;;;;;;17.83;15.40;;;;;;;8.12;100.00;98743.75;1441590;91;21368;-90
2023/01/19 08:53:29;;;;;;;21.27;16.23;;;;;;;8.21;100.00;98738.44;1439625;91;21376;-90
2023/01/19 08:56:00;;;;;;;22.67;17.00;;;;;;;8.27;100.00;98739.88;1442665;91;21427;-91
2023/01/19 08:58:26;;;;;;;22.27;14.07;;;;;;;8.26;100.00;98744.84;1439109;91;21493;-91
2023/01/19 09:00:52;;;;;;;17.87;11.43;;;;;;;8.25;100.00;98747.12;1433018;91;21487;-87
2023/01/19 09:03:21;;;;;;;17.77;11.80;;;;;;;8.22;100.00;98746.66;1434822;91;22307;-87
2023/01/19 09:05:47;;;;;;;19.47;9.20;;;;;;;8.21;100.00;98748.98;1361848;91;22066;-88
2023/01/19 09:08:14;;;;;;;14.93;7.83;;;;;;;8.16;100.00;98744.22;1364690;90;21420;-88
2023/01/19 09:10:47;;;;;;;17.13;10.83;;;;;;;8.17;100.00;98751.63;1349853;92;22115;-87
2023/01/19 09:13:14;;;;;;;19.30;13.10;;;;;;;8.19;100.00;98752.28;1516952;90;21477;-88
2023/01/19 09:15:42;;;;;;;23.47;10.33;;;;;;;8.12;100.00;98750.34;1370168;91;21339;-87
2023/01/19 09:22:46;;;;;;;7.87;5.97;;;;;;;7.92;100.00;98757.03;1517374;91;21368;-89
2023/01/19 09:25:12;;;;;;;18.10;7.77;;;;;;;7.80;100.00;98751.81;1371140;91;21572;-85
2023/01/19 09:27:39;;;;;;;9.63;6.83;;;;;;;7.72;100.00;98758.42;1364946;91;21421;-86
2023/01/19 09:30:07;;;;;;;11.83;6.17;;;;;;;7.63;100.00;98753.19;1378528;91;21376;-88
2023/01/19 09:32:33;;;;;;;11.93;6.67;;;;;;;7.54;100.00;98759.47;1436212;90;21391;-87
2023/01/19 09:34:59;;;;;;;8.17;6.13;;;;;;;7.49;100.00;98760.46;1437052;91;21390;-88
2023/01/19 09:37:25;;;;;;;11.30;6.87;;;;;;;7.45;100.00;98757.35;1437486;90;21376;-90
2023/01/19 09:39:53;;;;;;;10.73;6.77;;;;;;;7.44;100.00;98758.82;1438765;91;21593;-88
2023/01/19 09:42:44;;;;;;;7.90;5.47;;;;;;;7.43;100.00;98759.33;1433588;91;21567;-87
2023/01/19 09:45:34;;;;;;;9.20;6.72;;;;;;;7.24;100.00;98770.20;1438660;91;21338;-88
2023/01/19 09:48:05;;;;;;;5.20;4.20;;;;;;;7.16;100.00;98761.84;1441178;90;21523;-86
2023/01/19 09:50:36;;;;;;;8.80;4.63;;;;;;;7.04;100.00;98758.39;1434378;90;22389;-87
2023/01/19 09:53:12;;;;;;;6.53;4.80;;;;;;;7.03;100.00;98760.20;1435006;90;21331;-87
2023/01/19 09:55:44;;;;;;;8.70;5.70;;;;;;;6.83;100.00;98762.34;1436834;90;21435;-86
2023/01/19 09:58:17;;;;;;;6.77;3.87;;;;;;;6.83;100.00;98761.53;1432973;90;22527;-91
2023/01/19 10:00:52;;;;;;;9.10;4.77;;;;;;;6.71;100.00;98767.11;1437579;91;21361;-87
2023/01/19 10:03:19;;;;;;;7.20;4.07;;;;;;;6.72;100.00;98771.38;1360853;90;22115;-89
2023/01/19 10:06:03;;;;;;;6.63;3.83;;;;;;;6.77;100.00;98769.08;1369418;90;21273;-87
2023/01/19 10:08:50;;;;;;;9.23;4.00;;;;;;;6.68;100.00;98768.75;1517842;90;21221;-91
2023/01/19 10:11:37;;;;;;;31.00;25.20;;;;;;;6.57;100.00;98753.30;1361137;90;21578;-88
2023/01/19 10:14:09;;;;;;;13.60;7.77;;;;;;;6.54;100.00;98758.37;1361368;91;21458;-86
2023/01/19 10:17:16;;;;;;;12.93;7.67;;;;;;;6.37;100.00;98760.65;1457657;90;22212;-85
2023/01/19 10:19:47;;;;;;;12.97;5.70;;;;;;;6.33;100.00;98764.10;1402084;91;21610;-88
2023/01/19 10:22:25;;;;;;;13.53;6.75;;;;;;;6.29;100.00;98761.45;1515099;90;21442;-87
2023/01/19 10:25:04;;;;;;;7.80;5.53;;;;;;;6.31;100.00;98759.48;1360819;91;21332;-88
2023/01/19 10:27:33;;;;;;;9.83;6.10;;;;;;;6.30;100.00;98760.48;1517306;90;21310;-90
2023/01/19 10:30:01;;;;;;;38.57;26.20;;;;;;;6.32;100.00;98754.55;1362319;90;22325;-88
2023/01/19 10:32:32;;;;;;;8.73;6.57;;;;;;;6.33;100.00;98753.59;1366699;91;21256;-89
2023/01/19 10:34:59;;;;;;;5.13;3.67;;;;;;;6.35;100.00;98746.03;1517028;90;21303;-76
2023/01/19 10:37:35;;;;;;;2.90;2.10;;;;;;;6.28;100.00;98758.50;1349055;92;21287;-76
2023/01/19 10:40:13;;;;;;;4.00;2.00;;;;;;;6.22;100.00;98755.20;1377573;90;21361;-80
2023/01/19 10:42:41;;;;;;;2.60;1.83;;;;;;;6.21;100.00;98753.54;1517189;91;22056;-87
2023/01/19 10:45:28;;;;;;;2.37;1.90;;;;;;;6.19;100.00;98754.21;1363125;90;22102;-86
2023/01/19 10:47:59;;;;;;;2.47;1.60;;;;;;;6.29;100.00;98757.50;1502499;91;21517;-85
2023/01/19 10:50:32;;;;;;;2.10;1.50;;;;;;;6.25;100.00;98760.13;1448929;90;21612;-84
2023/01/19 10:53:13;;;;;;;3.03;1.50;;;;;;;6.32;100.00;98757.18;1437209;91;21405;-85
2023/01/19 10:55:39;;;;;;;3.12;1.50;;;;;;;6.31;100.00;98758.17;1508010;91;21162;-85
2023/01/19 10:58:08;;;;;;;3.97;2.00;;;;;;;6.25;100.00;98752.25;1364796;91;21249;-84
2023/01/19 11:00:40;;;;;;;3.43;1.67;;;;;;;6.22;100.00;98750.45;1496181;90;21376;-83
2023/01/19 11:03:28;;;;;;;10.00;5.50;;;;;;;6.08;100.00;98745.31;1367049;91;21479;-83
2023/01/19 11:06:21;;;;;;;3.40;1.40;;;;;;;6.31;100.00;98742.41;1353158;93;21524;-84
2023/01/19 11:08:50;;;;;;;5.00;2.13;;;;;;;6.30;100.00;98747.81;1517335;90;21251;-81
2023/01/19 11:11:22;;;;;;;3.30;2.07;;;;;;;6.28;100.00;98753.73;1367223;91;21487;-80
2023/01/19 11:14:10;;;;;;;3.27;2.27;;;;;;;6.40;100.00;98758.20;1517239;90;21354;-80
2023/01/19 11:16:38;;;;;;;7.73;3.43;;;;;;;6.44;100.00;98754.25;1470453;91;21332;-80
2023/01/19 11:19:07;;;;;;;3.53;2.67;;;;;;;6.44;100.00;98747.67;1354713;91;21475;-82
2023/01/19 11:21:34;;;;;;;4.20;2.93;;;;;;;6.46;100.00;98750.97;1362169;90;21428;-87
2023/01/19 11:24:04;;;;;;;3.67;3.17;;;;;;;6.48;100.00;98752.95;1356083;91;21236;-86
2023/01/19 11:26:35;;;;;;;6.10;3.35;;;;;;;6.54;100.00;98756.25;1360552;90;21413;-88
2023/01/19 11:29:02;;;;;;;5.12;2.62;;;;;;;6.46;100.00;98761.48;1516708;90;21288;-87
2023/01/19 11:31:34;;;;;;;5.03;2.77;;;;;;;6.43;100.00;98758.69;1363218;90;21265;-87
2023/01/19 11:34:04;;;;;;;3.80;2.77;;;;;;;6.41;100.00;98760.64;1517274;90;21200;-89
2023/01/19 11:36:36;;;;;;;5.57;3.27;;;;;;;6.45;100.00;98758.54;1360891;90;21228;-86
2023/01/19 11:39:24;;;;;;;7.07;5.03;;;;;;;6.39;100.00;98760.01;1370242;91;21391;-87
2023/01/19 11:41:56;;;;;;;13.63;9.87;;;;;;;6.26;100.00;98768.34;1360585;90;21295;-88
2023/01/19 11:44:27;;;;;;;8.93;6.23;;;;;;;6.31;100.00;98768.69;1517134;90;21309;-89
2023/01/19 11:46:58;;;;;;;76.53;46.43;;;;;;;6.38;100.00;98774.61;1507985;91;21221;-91
2023/01/19 11:49:53;;;;;;;11.45;7.17;;;;;;;6.40;100.00;98789.73;1363058;91;21324;-89
2023/01/19 11:52:38;;;;;;;14.17;7.40;;;;;;;6.38;100.00;98781.17;1510014;90;21346;-87